Time;durP1;ratioP1;P1;durP2;ratioP2;P2;SDS_P1;SDS_P2;PMS_P1;PMS_P2;Temp;Humidity;BMP_temperature;BMP_pressure;BME280_temperature;BME280_humidity;BME280_pressure;Samples;Min_cycle;Max_cycle;Signal;HPM_P1;HPM_P2
2022/04/26 03:36:18;;;;;;;41.20;29.90;;;9.80;99.90;;;;;;5095190;28;20999;-42
2022/04/26 03:38:47;;;;;;;44.50;31.33;;;9.80;99.90;;;;;;5095117;28;20177;-42
2022/04/26 03:41:13;;;;;;;43.08;30.60;;;9.70;99.90;;;;;;5095005;28;20693;-42
2022/04/26 03:43:39;;;;;;;45.00;32.10;;;9.80;99.90;;;;;;5095078;28;20173;-45
2022/04/26 03:46:04;;;;;;;36.30;23.58;;;9.70;99.90;;;;;;5093567;28;20263;-44
2022/04/26 03:48:30;;;;;;;47.42;30.70;;;9.60;99.90;;;;;;5094949;28;20176;-43
2022/04/26 03:50:55;;;;;;;49.67;31.77;;;9.70;99.90;;;;;;5095232;28;20231;-42
2022/04/26 03:53:21;;;;;;;45.53;32.80;;;9.70;99.90;;;;;;5093570;28;20589;-44
2022/04/26 03:55:46;;;;;;;48.78;32.90;;;9.70;99.90;;;;;;5094701;28;20243;-43
2022/04/26 03:58:12;;;;;;;45.53;33.72;;;9.70;99.90;;;;;;5094768;28;20188;-42
2022/04/26 04:00:38;;;;;;;46.92;33.58;;;9.70;99.90;;;;;;5094477;28;20173;-42
2022/04/26 04:03:04;;;;;;;45.67;32.22;;;9.70;99.90;;;;;;5094209;28;20232;-45
2022/04/26 04:05:29;;;;;;;38.97;28.73;;;9.70;99.90;;;;;;5094566;28;20660;-46
2022/04/26 04:07:55;;;;;;;43.30;31.05;;;9.70;99.90;;;;;;5094846;28;20202;-48
2022/04/26 04:10:20;;;;;;;44.05;30.08;;;9.70;99.90;;;;;;5094118;28;20173;-46
2022/04/26 04:12:46;;;;;;;44.00;31.35;;;9.70;99.90;;;;;;5094421;28;20167;-44
2022/04/26 04:15:12;;;;;;;44.90;32.03;;;9.70;99.90;;;;;;5094338;28;20361;-49
2022/04/26 04:17:37;;;;;;;46.40;31.67;;;9.70;99.90;;;;;;5094282;28;20172;-49
2022/04/26 04:20:03;;;;;;;49.30;33.08;;;9.70;99.90;;;;;;5094315;28;20230;-48
2022/04/26 04:22:29;;;;;;;47.65;32.58;;;9.70;99.90;;;;;;5094258;28;20175;-44
2022/04/26 04:24:55;;;;;;;53.10;35.05;;;9.70;99.90;;;;;;5094526;28;20173;-47
2022/04/26 04:27:20;;;;;;;46.10;32.42;;;9.70;99.90;;;;;;5094118;28;20220;-48
2022/04/26 04:29:45;;;;;;;44.55;30.90;;;9.60;99.90;;;;;;5094122;28;20200;-49
2022/04/26 04:32:11;;;;;;;40.72;28.58;;;9.60;99.90;;;;;;5094134;28;20295;-49
2022/04/26 04:34:37;;;;;;;39.22;27.50;;;9.50;99.90;;;;;;5093960;28;20209;-49
2022/04/26 04:37:03;;;;;;;39.60;26.40;;;9.40;99.90;;;;;;5094003;28;20196;-46
2022/04/26 04:39:28;;;;;;;40.03;28.55;;;9.40;99.90;;;;;;5094473;28;20177;-42
2022/04/26 04:41:54;;;;;;;40.58;28.00;;;9.50;99.90;;;;;;5094528;28;20176;-44
2022/04/26 04:44:21;;;;;;;39.83;26.42;;;9.40;99.90;;;;;;5081490;28;20635;-42
2022/04/26 04:46:47;;;;;;;34.03;24.58;;;9.40;99.90;;;;;;5082888;28;20189;-41
2022/04/26 04:49:13;;;;;;;38.40;24.88;;;9.40;99.90;;;;;;5072124;28;20548;-42
2022/04/26 04:51:38;;;;;;;37.42;23.85;;;9.40;99.90;;;;;;5073417;28;20174;-42
2022/04/26 04:54:04;;;;;;;35.80;23.67;;;9.40;99.90;;;;;;5073463;28;20198;-42
2022/04/26 04:56:31;;;;;;;28.20;19.42;;;9.40;99.90;;;;;;5072705;28;20174;-42
2022/04/26 04:58:57;;;;;;;29.23;20.23;;;9.30;99.90;;;;;;5073712;28;20174;-42
2022/04/26 05:01:23;;;;;;;32.03;21.73;;;9.30;99.90;;;;;;5072982;28;20631;-42
2022/04/26 05:03:49;;;;;;;32.58;23.80;;;9.40;99.90;;;;;;5072998;28;20181;-42
2022/04/26 05:06:15;;;;;;;35.03;23.65;;;9.40;99.90;;;;;;5071676;28;20598;-41
2022/04/26 05:08:42;;;;;;;40.63;26.73;;;9.40;99.90;;;;;;5073182;28;20170;-41
2022/04/26 05:11:08;;;;;;;37.10;26.45;;;9.40;99.90;;;;;;5072984;28;20551;-41
2022/04/26 05:13:34;;;;;;;42.33;27.98;;;9.40;99.90;;;;;;5072886;28;20255;-43
2022/04/26 05:16:00;;;;;;;49.33;30.98;;;9.40;99.90;;;;;;5072676;28;20205;-43
2022/04/26 05:18:27;;;;;;;57.53;35.22;;;9.40;99.90;;;;;;5073117;28;20177;-49
2022/04/26 05:20:52;;;;;;;52.40;31.65;;;9.50;99.90;;;;;;5072908;28;20224;-49
2022/04/26 05:26:02;;;;;;;30.88;19.48;;;9.40;99.90;;;;;;5072797;28;20554;-46
2022/04/26 05:28:28;;;;;;;36.05;24.00;;;9.20;99.90;;;;;;5073064;28;20174;-49
2022/04/26 05:30:54;;;;;;;35.05;24.05;;;9.00;99.90;;;;;;5073298;28;20166;-49
2022/04/26 05:33:21;;;;;;;35.20;24.13;;;9.20;99.90;;;;;;5072599;28;20173;-50
2022/04/26 05:35:49;;;;;;;33.58;24.17;;;9.20;99.90;;;;;;5072767;28;20241;-45
2022/04/26 05:38:16;;;;;;;29.90;21.00;;;9.20;99.90;;;;;;5072625;28;20166;-49
2022/04/26 05:40:42;;;;;;;31.13;21.63;;;9.20;99.90;;;;;;5072533;28;20166;-46
2022/04/26 05:43:08;;;;;;;29.30;19.75;;;9.20;99.90;;;;;;5072436;28;20238;-47
2022/04/26 05:45:33;;;;;;;22.65;16.60;;;9.20;99.90;;;;;;5072554;28;20186;-50
2022/04/26 05:47:59;;;;;;;23.70;16.90;;;9.10;99.90;;;;;;5072445;28;20184;-46
2022/04/26 05:50:25;;;;;;;23.55;14.43;;;9.10;99.90;;;;;;5072955;28;20170;-49
2022/04/26 05:52:50;;;;;;;20.52;13.38;;;9.00;99.90;;;;;;5072524;28;20170;-48
2022/04/26 05:55:16;;;;;;;20.58;12.25;;;9.00;99.90;;;;;;5072378;28;20709;-48
2022/04/26 05:57:42;;;;;;;19.73;11.27;;;9.00;99.90;;;;;;5072501;28;20239;-48
2022/04/26 06:00:09;;;;;;;15.45;12.18;;;8.90;99.90;;;;;;5072534;28;20178;-46
2022/04/26 06:02:35;;;;;;;21.67;11.85;;;8.90;99.90;;;;;;5075332;28;20579;-46
2022/04/26 06:05:01;;;;;;;18.30;12.20;;;8.80;99.90;;;;;;5090904;28;20176;-43
2022/04/26 06:07:27;;;;;;;17.83;9.93;;;8.90;99.90;;;;;;5091258;28;20199;-44
2022/04/26 06:09:54;;;;;;;21.13;12.80;;;8.80;99.90;;;;;;5090540;28;20169;-43
2022/04/26 06:12:23;;;;;;;14.65;10.35;;;8.80;99.90;;;;;;5090911;28;20166;-44
2022/04/26 06:14:49;;;;;;;19.88;12.35;;;8.90;99.90;;;;;;5091203;28;20312;-45
2022/04/26 06:17:14;;;;;;;19.70;11.82;;;8.80;99.90;;;;;;5090955;28;20248;-43
2022/04/26 06:19:40;;;;;;;17.45;13.13;;;8.90;99.90;;;;;;5090892;28;20169;-46
2022/04/26 06:22:05;;;;;;;18.80;11.23;;;8.90;99.90;;;;;;5090731;28;20161;-45
2022/04/26 06:24:31;;;;;;;16.25;10.50;;;8.80;99.90;;;;;;5090765;28;20173;-45
2022/04/26 06:26:56;;;;;;;17.75;10.82;;;8.80;99.90;;;;;;5091096;28;20153;-52
2022/04/26 06:29:22;;;;;;;19.00;12.45;;;8.70;99.90;;;;;;5090664;28;20180;-48
2022/04/26 06:31:47;;;;;;;18.00;12.10;;;8.70;99.90;;;;;;5090719;28;20185;-47
2022/04/26 06:34:13;;;;;;;24.42;13.45;;;8.70;99.90;;;;;;5090581;28;20271;-48
2022/04/26 06:36:39;;;;;;;20.85;12.27;;;8.80;99.90;;;;;;5090688;28;20204;-44
2022/04/26 06:39:04;;;;;;;21.77;14.13;;;8.80;99.90;;;;;;5090769;28;20170;-47
2022/04/26 06:41:30;;;;;;;20.60;13.95;;;8.70;99.90;;;;;;5090664;28;20169;-44
2022/04/26 06:43:56;;;;;;;20.42;13.75;;;8.80;99.90;;;;;;5091210;28;20189;-43
2022/04/26 06:46:21;;;;;;;22.13;13.00;;;8.90;99.90;;;;;;5090483;28;20208;-43
2022/04/26 06:48:49;;;;;;;24.67;15.13;;;8.90;99.90;;;;;;5090635;28;20192;-40
2022/04/26 06:51:15;;;;;;;22.58;14.13;;;8.90;99.90;;;;;;5090536;28;20642;-41
2022/04/26 06:53:41;;;;;;;31.30;17.52;;;9.00;99.90;;;;;;5090819;28;20219;-41
2022/04/26 06:56:06;;;;;;;26.10;15.93;;;9.10;99.90;;;;;;5090427;28;20205;-43
2022/04/26 06:58:33;;;;;;;30.95;15.63;;;9.10;99.90;;;;;;5090541;28;20172;-40
2022/04/26 07:01:00;;;;;;;27.33;16.00;;;9.10;99.90;;;;;;5090649;28;20177;-43
2022/04/26 07:03:26;;;;;;;30.45;18.38;;;9.10;99.90;;;;;;5090569;28;20224;-42
2022/04/26 07:05:52;;;;;;;31.83;17.85;;;9.20;99.90;;;;;;5090443;28;20189;-46
2022/04/26 07:08:18;;;;;;;31.17;18.85;;;9.20;99.90;;;;;;5090419;28;20583;-46
2022/04/26 07:10:44;;;;;;;35.20;17.25;;;9.30;99.90;;;;;;5090721;28;20180;-43
2022/04/26 07:13:09;;;;;;;29.05;16.38;;;9.40;99.90;;;;;;5090362;28;20597;-52
2022/04/26 07:15:35;;;;;;;25.45;16.83;;;9.50;99.90;;;;;;5088867;28;20240;-47
2022/04/26 07:18:00;;;;;;;29.88;18.75;;;9.60;99.90;;;;;;5088859;28;20514;-52
2022/04/26 07:20:29;;;;;;;33.97;20.48;;;9.80;99.90;;;;;;5090665;28;20169;-46
2022/04/26 07:22:55;;;;;;;30.95;21.42;;;9.90;99.90;;;;;;5092639;28;20252;-47
2022/04/26 07:25:21;;;;;;;35.70;19.17;;;9.80;99.90;;;;;;5093053;28;20169;-47
2022/04/26 07:27:46;;;;;;;34.85;19.80;;;9.80;99.90;;;;;;5093747;28;20169;-45
2022/04/26 07:30:13;;;;;;;33.13;19.55;;;9.80;99.90;;;;;;5093654;28;20170;-46
2022/04/26 07:35:22;;;;;;;36.65;22.08;;;9.70;99.90;;;;;;5093745;28;20208;-45
2022/04/26 07:37:48;;;;;;;41.10;24.05;;;9.70;99.90;;;;;;5093831;28;20161;-43
2022/04/26 07:40:14;;;;;;;37.78;22.35;;;9.70;99.90;;;;;;5093541;28;20177;-43
2022/04/26 07:42:39;;;;;;;37.83;25.02;;;9.50;99.90;;;;;;5093788;28;20173;-43
2022/04/26 07:45:06;;;;;;;42.75;26.00;;;9.60;99.90;;;;;;5093718;28;20264;-44
2022/04/26 07:47:31;;;;;;;47.58;29.25;;;9.70;99.90;;;;;;5093855;28;20531;-47
2022/04/26 07:50:01;;;;;;;48.03;32.50;;;9.80;99.90;;;;;;5093868;28;20169;-42
2022/04/26 07:52:28;;;;;;;60.13;37.92;;;9.90;99.90;;;;;;5093970;28;20175;-42
2022/04/26 07:54:54;;;;;;;55.55;32.72;;;9.90;99.90;;;;;;5093988;28;20235;-45
2022/04/26 07:57:19;;;;;;;53.83;35.22;;;9.70;99.90;;;;;;5093445;28;20630;-46
2022/04/26 07:59:45;;;;;;;62.03;36.17;;;9.70;99.90;;;;;;5093431;28;20170;-45
2022/04/26 08:02:10;;;;;;;65.70;34.92;;;9.60;99.90;;;;;;5093156;28;20365;-43
2022/04/26 08:04:37;;;;;;;65.63;37.97;;;9.70;99.90;;;;;;5093644;28;20169;-42
2022/04/26 08:07:03;;;;;;;59.38;32.50;;;9.80;99.90;;;;;;5093024;28;20166;-42
2022/04/26 08:09:29;;;;;;;64.60;38.47;;;9.70;99.90;;;;;;5093210;28;20173;-45
2022/04/26 08:11:55;;;;;;;66.50;39.20;;;9.70;99.90;;;;;;5093264;28;20219;-42
2022/04/26 08:14:21;;;;;;;64.90;40.95;;;9.70;99.90;;;;;;5093151;28;20193;-42
2022/04/26 08:16:46;;;;;;;65.10;39.25;;;9.70;99.90;;;;;;5092792;28;20226;-42
2022/04/26 08:19:12;;;;;;;66.22;41.67;;;9.70;99.90;;;;;;5092975;28;20170;-42
2022/04/26 08:21:41;;;;;;;64.70;41.63;;;9.90;99.90;;;;;;5092683;28;20252;-42
2022/04/26 08:29:35;;;;;;;77.15;44.55;;;9.90;99.90;;;;;;5092894;28;20267;-44
2022/04/26 08:32:01;;;;;;;76.80;48.38;;;9.90;99.90;;;;;;5091506;28;20174;-45
2022/04/26 08:34:27;;;;;;;73.05;44.38;;;9.90;99.90;;;;;;5092853;28;20205;-43
2022/04/26 08:36:53;;;;;;;68.40;43.20;;;10.00;99.90;;;;;;5092656;28;20278;-42
2022/04/26 08:39:20;;;;;;;70.45;46.47;;;10.00;99.90;;;;;;5092568;28;20634;-42
2022/04/26 08:41:45;;;;;;;76.55;45.55;;;10.10;99.90;;;;;;5092806;28;20226;-43
2022/04/26 08:44:12;;;;;;;77.03;47.63;;;10.50;99.90;;;;;;5092727;28;20197;-42
2022/04/26 08:52:08;;;;;;;65.18;40.80;;;10.50;99.90;;;;;;5092504;28;20548;-42
2022/04/26 08:54:35;;;;;;;78.97;49.83;;;10.50;99.90;;;;;;5092300;28;20223;-43
2022/04/26 08:57:01;;;;;;;84.97;49.88;;;10.50;99.90;;;;;;5092284;28;20211;-42
2022/04/26 08:59:27;;;;;;;87.75;49.22;;;10.60;99.90;;;;;;5092514;28;20645;-43
2022/04/26 09:02:25;;;;;;;75.00;47.05;;;10.60;99.90;;;;;;5092030;28;20213;-42
2022/04/26 09:04:59;;;;;;;82.40;48.08;;;10.70;99.90;;;;;;5069153;28;20634;-42
2022/04/26 09:07:30;;;;;;;79.15;47.03;;;10.70;99.90;;;;;;5092256;28;20690;-41
2022/04/26 09:10:05;;;;;;;77.68;47.28;;;10.60;99.90;;;;;;5092601;28;20173;-42
2022/04/26 09:12:30;;;;;;;71.00;46.88;;;10.60;99.90;;;;;;5091951;28;20199;-43
2022/04/26 09:14:56;;;;;;;74.95;48.25;;;10.60;99.90;;;;;;5092196;28;20240;-49
2022/04/26 09:17:21;;;;;;;65.75;47.10;;;10.50;99.90;;;;;;5092000;28;20165;-42
2022/04/26 09:19:55;;;;;;;71.15;47.58;;;10.50;99.90;;;;;;5091881;28;20219;-49
2022/04/26 09:22:26;;;;;;;72.93;47.72;;;10.60;99.90;;;;;;5091920;28;20564;-48
2022/04/26 09:25:08;;;;;;;67.53;43.83;;;10.60;99.90;;;;;;5091918;28;20225;-46
2022/04/26 09:27:39;;;;;;;69.60;45.33;;;10.60;99.90;;;;;;5091749;28;20227;-50
2022/04/26 09:30:13;;;;;;;68.50;44.05;;;10.70;99.90;;;;;;5091791;28;20264;-50
2022/04/26 09:32:46;;;;;;;68.65;42.70;;;10.70;99.90;;;;;;5091894;28;20180;-49
2022/04/26 09:35:32;;;;;;;67.47;45.60;;;10.70;99.90;;;;;;5091503;28;20227;-49
2022/04/26 09:37:59;;;;;;;66.93;45.90;;;10.80;99.90;;;;;;5092003;28;20200;-46
2022/04/26 09:40:29;;;;;;;73.15;43.72;;;10.90;99.90;;;;;;5091898;28;20181;-43
2022/04/26 09:42:54;;;;;;;64.47;42.92;;;10.90;99.90;;;;;;5090168;28;20649;-43
2022/04/26 09:45:20;;;;;;;62.03;44.10;;;11.10;99.90;;;;;;5091387;28;20234;-44
2022/04/26 09:47:46;;;;;;;53.97;35.38;;;11.30;99.90;;;;;;5091668;28;20173;-42
2022/04/26 09:50:14;;;;;;;51.53;39.47;;;11.20;99.90;;;;;;5091552;28;20538;-43
2022/04/26 09:52:40;;;;;;;57.42;40.33;;;11.50;99.90;;;;;;5091194;28;20267;-42
2022/04/26 09:55:09;;;;;;;56.47;41.83;;;11.60;99.90;;;;;;5089909;28;20576;-42
2022/04/26 09:57:36;;;;;;;62.65;44.08;;;11.70;99.90;;;;;;5091215;28;20653;-44
2022/04/26 10:00:11;;;;;;;52.40;40.35;;;11.80;99.90;;;;;;5089900;28;20648;-42
2022/04/26 10:02:41;;;;;;;48.30;38.67;;;11.90;99.90;;;;;;5091046;28;20230;-42
2022/04/26 10:05:08;;;;;;;54.03;42.25;;;12.10;99.90;;;;;;5091132;28;20169;-42
2022/04/26 10:07:43;;;;;;;55.45;43.15;;;12.20;99.90;;;;;;5090984;28;20605;-42
2022/04/26 10:10:09;;;;;;;56.40;43.92;;;12.20;99.90;;;;;;5089620;28;20579;-42
2022/04/26 10:12:35;;;;;;;54.58;40.60;;;12.20;99.90;;;;;;5089786;28;20245;-42
2022/04/26 10:15:02;;;;;;;55.50;43.60;;;12.30;99.90;;;;;;5090966;28;20200;-41
2022/04/26 10:17:30;;;;;;;56.20;44.40;;;12.10;99.90;;;;;;5091164;28;20177;-42
2022/04/26 10:19:55;;;;;;;56.65;46.13;;;12.00;99.90;;;;;;5091435;28;20165;-41
2022/04/26 10:23:06;;;;;;;61.17;48.53;;;12.30;99.90;;;;;;5090914;28;20171;-42
2022/04/26 10:25:31;;;;;;;67.82;51.08;;;12.40;99.90;;;;;;5088558;28;20220;-42
2022/04/26 10:28:26;;;;;;;60.47;51.03;;;12.30;99.90;;;;;;5091371;28;20215;-41
2022/04/26 10:30:56;;;;;;;60.55;47.55;;;12.20;99.90;;;;;;5090996;28;20172;-42
2022/04/26 10:33:36;;;;;;;66.57;49.47;;;12.20;99.90;;;;;;5090629;28;20635;-42
2022/04/26 10:36:20;;;;;;;68.90;49.35;;;12.00;99.90;;;;;;5090504;28;20224;-42
2022/04/26 10:39:09;;;;;;;65.85;51.88;;;12.20;99.90;;;;;;5090663;28;20177;-43
2022/04/26 10:41:37;;;;;;;62.10;48.72;;;12.50;99.90;;;;;;5090698;28;20169;-46
2022/04/26 10:44:15;;;;;;;61.95;50.22;;;12.50;99.90;;;;;;5090587;28;20634;-47
2022/04/26 10:47:07;;;;;;;63.53;50.08;;;12.60;99.90;;;;;;5090914;28;20169;-45
2022/04/26 10:49:37;;;;;;;59.35;48.05;;;12.70;99.90;;;;;;5090356;28;20173;-43
2022/04/26 10:52:26;;;;;;;60.17;49.58;;;12.70;99.90;;;;;;5090815;28;20177;-45
2022/04/26 10:54:53;;;;;;;64.22;51.17;;;12.70;99.90;;;;;;5085947;28;20209;-46
2022/04/26 10:57:23;;;;;;;61.80;49.25;;;12.80;99.90;;;;;;5094822;28;20177;-47
2022/04/26 10:59:59;;;;;;;57.33;48.47;;;13.00;99.90;;;;;;5095605;28;20161;-46
2022/04/26 11:02:28;;;;;;;60.17;45.55;;;13.10;99.90;;;;;;5095976;28;20234;-47
2022/04/26 11:05:02;;;;;;;56.90;45.38;;;13.10;99.90;;;;;;5096030;28;20626;-45
2022/04/26 11:07:29;;;;;;;54.05;45.15;;;13.10;99.90;;;;;;5095966;28;20256;-47
2022/04/26 11:09:56;;;;;;;52.47;45.70;;;12.90;99.90;;;;;;5096066;28;20204;-45
2022/04/26 11:12:27;;;;;;;57.70;46.78;;;13.00;99.90;;;;;;5095891;28;20265;-48
2022/04/26 11:14:55;;;;;;;53.53;45.92;;;13.00;99.90;;;;;;5095499;28;20189;-46
2022/04/26 11:17:22;;;;;;;60.42;47.22;;;13.10;99.90;;;;;;5095566;28;20579;-44
2022/04/26 11:19:53;;;;;;;54.45;44.20;;;13.20;99.90;;;;;;5095825;28;21186;-44
2022/04/26 11:22:20;;;;;;;55.03;48.00;;;13.30;99.90;;;;;;5095691;28;20173;-49
2022/04/26 11:31:00;;;;;;;50.25;41.35;;;13.70;99.90;;;;;;5095247;28;20268;-45
2022/04/26 11:33:28;;;;;;;49.92;44.05;;;13.90;99.90;;;;;;5086561;28;20204;-46
2022/04/26 11:35:59;;;;;;;47.75;41.80;;;14.10;99.90;;;;;;5095385;28;20574;-47
2022/04/26 11:38:25;;;;;;;47.08;41.97;;;13.10;99.90;;;;;;5095494;28;20166;-47
2022/04/26 11:40:54;;;;;;;42.85;31.65;;;14.20;99.90;;;;;;5095242;28;20302;-47
2022/04/26 11:43:26;;;;;;;34.25;29.88;;;14.10;99.90;;;;;;5095001;28;20161;-44
2022/04/26 11:45:53;;;;;;;37.63;31.95;;;14.00;99.90;;;;;;5094952;28;20702;-46
2022/04/26 11:48:21;;;;;;;40.00;35.58;;;14.00;99.90;;;;;;5094999;28;20175;-46
2022/04/26 11:50:51;;;;;;;41.03;36.80;;;14.00;99.90;;;;;;5094865;28;20161;-44
2022/04/26 11:53:19;;;;;;;37.58;33.33;;;14.20;99.90;;;;;;5094770;28;20173;-41
2022/04/26 11:55:51;;;;;;;41.17;35.88;;;14.10;99.90;;;;;;5094608;28;20213;-42
2022/04/26 11:58:18;;;;;;;38.55;34.42;;;14.40;99.90;;;;;;5094694;28;20177;-42
2022/04/26 12:01:12;;;;;;;34.47;30.98;;;14.60;99.90;;;;;;5094936;28;20177;-43
2022/04/26 12:03:47;;;;;;;33.88;30.30;;;14.50;99.90;;;;;;5094933;28;20590;-45
2022/04/26 12:06:15;;;;;;;32.60;28.48;;;14.70;99.90;;;;;;5093594;28;20180;-42
2022/04/26 12:08:43;;;;;;;32.30;28.83;;;14.80;99.90;;;;;;5094677;28;20168;-43
2022/04/26 12:11:23;;;;;;;31.85;27.25;;;14.80;99.90;;;;;;5094483;28;20169;-43
2022/04/26 12:14:05;;;;;;;32.08;28.70;;;14.90;99.90;;;;;;5094441;28;20165;-44
2022/04/26 12:16:35;;;;;;;27.98;22.35;;;14.90;99.90;;;;;;5094270;28;20658;-44
2022/04/26 12:19:01;;;;;;;28.63;22.00;;;15.00;99.90;;;;;;5094343;28;20172;-42
2022/04/26 12:21:28;;;;;;;24.55;22.00;;;14.90;99.90;;;;;;5094870;28;20170;-43
2022/04/26 12:24:30;;;;;;;27.02;23.40;;;14.80;99.90;;;;;;5093649;28;20258;-45
2022/04/26 12:26:58;;;;;;;24.05;21.25;;;14.50;99.90;;;;;;5052143;28;20301;-43
2022/04/26 12:29:26;;;;;;;26.75;23.85;;;14.40;99.90;;;;;;5087043;28;20544;-42
2022/04/26 12:31:52;;;;;;;25.80;23.13;;;14.80;99.90;;;;;;5094100;28;20162;-46
2022/04/26 12:34:18;;;;;;;23.80;21.35;;;15.20;99.90;;;;;;5094231;28;20177;-44
2022/04/26 12:36:51;;;;;;;25.15;22.65;;;15.20;99.90;;;;;;5093953;28;20177;-46
2022/04/26 12:39:18;;;;;;;25.52;22.90;;;15.30;99.90;;;;;;5094156;28;20180;-48
2022/04/26 12:41:52;;;;;;;26.23;22.77;;;15.60;99.90;;;;;;5093918;28;20214;-47
2022/04/26 12:44:19;;;;;;;25.58;22.85;;;15.70;99.90;;;;;;5093837;28;20214;-47
2022/04/26 12:52:49;;;;;;;22.35;19.58;;;15.50;99.90;;;;;;5093632;28;20634;-44
2022/04/26 12:55:27;;;;;;;21.63;17.20;;;15.70;99.90;;;;;;5093757;28;20201;-45
2022/04/26 12:57:55;;;;;;;18.63;15.60;;;15.70;99.90;;;;;;5092063;28;20165;-46
2022/04/26 13:00:23;;;;;;;17.52;15.63;;;16.00;99.90;;;;;;5093427;28;20169;-46
2022/04/26 13:02:50;;;;;;;20.00;14.40;;;16.00;99.90;;;;;;5093042;28;20217;-47
2022/04/26 13:05:16;;;;;;;21.25;16.02;;;16.00;99.90;;;;;;5093655;28;20201;-43
2022/04/26 13:07:46;;;;;;;19.27;15.57;;;16.30;99.90;;;;;;5093464;28;20168;-42
2022/04/26 13:10:12;;;;;;;17.65;15.30;;;16.40;99.90;;;;;;5093596;28;20240;-45
2022/04/26 13:12:38;;;;;;;19.38;17.55;;;16.60;99.90;;;;;;5093189;28;20626;-43
2022/04/26 13:15:08;;;;;;;18.33;16.42;;;16.20;99.90;;;;;;5091975;28;20266;-43
2022/04/26 13:17:35;;;;;;;16.83;15.07;;;16.50;99.90;;;;;;5092914;28;20166;-46
2022/04/26 13:20:01;;;;;;;18.27;15.48;;;16.70;99.90;;;;;;5093208;28;20162;-45
2022/04/26 13:22:26;;;;;;;16.73;14.32;;;16.80;99.90;;;;;;5093217;28;20256;-42
2022/04/26 13:24:52;;;;;;;15.10;13.50;;;16.80;99.90;;;;;;5093088;28;20246;-43
2022/04/26 13:27:18;;;;;;;16.90;15.23;;;16.80;99.90;;;;;;5093003;28;20504;-43
2022/04/26 13:29:44;;;;;;;16.17;14.52;;;16.90;99.90;;;;;;5093150;28;20176;-46
2022/04/26 13:32:10;;;;;;;17.33;15.18;;;16.80;99.90;;;;;;5093179;28;20169;-42
2022/04/26 13:34:35;;;;;;;16.25;14.65;;;16.90;99.90;;;;;;5092769;28;20256;-43
2022/04/26 13:37:01;;;;;;;17.48;15.75;;;17.00;99.90;;;;;;5093051;28;20652;-45
2022/04/26 13:39:26;;;;;;;15.95;14.35;;;17.40;99.90;;;;;;5093072;28;20166;-45
2022/04/26 13:41:52;;;;;;;18.05;15.02;;;17.60;99.90;;;;;;5092740;28;20267;-42
2022/04/26 13:44:19;;;;;;;11.05;9.75;;;17.60;99.90;;;;;;5092658;28;20169;-42
2022/04/26 13:46:46;;;;;;;13.70;10.75;;;16.90;99.90;;;;;;5092919;28;20177;-43
2022/04/26 13:49:11;;;;;;;14.80;11.65;;;16.30;99.90;;;;;;5092653;28;20172;-46
2022/04/26 13:51:37;;;;;;;15.88;12.75;;;15.90;99.90;;;;;;5093039;28;20252;-43
2022/04/26 13:54:03;;;;;;;19.75;15.70;;;15.30;99.90;;;;;;5092548;28;20168;-42
2022/04/26 13:56:29;;;;;;;17.70;15.05;;;14.80;99.90;;;;;;5092894;28;20536;-43
2022/04/26 13:58:55;;;;;;;18.08;15.23;;;14.40;99.90;;;;;;5092803;28;20244;-43
2022/04/26 14:01:22;;;;;;;20.08;14.65;;;14.00;99.90;;;;;;5092268;28;20175;-42
2022/04/26 14:03:49;;;;;;;17.75;15.88;;;13.80;99.90;;;;;;5092679;28;20161;-43
2022/04/26 14:06:18;;;;;;;13.68;10.85;;;13.60;99.90;;;;;;5091386;28;20193;-44
2022/04/26 14:08:48;;;;;;;14.43;11.35;;;13.50;99.90;;;;;;5092604;28;20174;-42
2022/04/26 14:11:14;;;;;;;17.38;14.38;;;13.60;99.90;;;;;;5092303;28;20166;-42
2022/04/26 14:21:47;;;;;;;21.73;17.20;;;13.60;99.90;;;;;;5092228;28;20182;-42
2022/04/26 14:21:53;;;;;;;23.00;19.55;;;14.10;99.90;;;;;;5092398;28;20657;-41
2022/04/26 14:24:18;;;;;;;22.35;19.60;;;14.10;99.90;;;;;;5092134;28;20166;-41
2022/04/26 14:26:44;;;;;;;20.50;15.00;;;14.20;99.90;;;;;;5092152;28;20181;-43
2022/04/26 14:29:10;;;;;;;20.27;13.52;;;14.20;99.90;;;;;;5090157;28;20185;-41
2022/04/26 14:31:36;;;;;;;18.23;13.68;;;14.10;99.90;;;;;;5091989;28;20177;-44
2022/04/26 14:34:02;;;;;;;19.30;14.52;;;14.30;99.90;;;;;;5092079;28;20255;-41
2022/04/26 14:36:28;;;;;;;14.40;12.90;;;14.30;99.90;;;;;;5092196;28;20209;-42
2022/04/26 14:38:54;;;;;;;19.25;14.80;;;14.40;99.90;;;;;;5092382;28;20173;-41
2022/04/26 14:41:19;;;;;;;16.67;13.88;;;14.70;99.90;;;;;;5092219;28;20269;-42
2022/04/26 14:43:45;;;;;;;13.13;11.82;;;14.80;99.90;;;;;;5091550;28;20647;-42
2022/04/26 14:46:11;;;;;;;12.88;10.93;;;14.90;99.90;;;;;;5091925;28;20611;-45
2022/04/26 14:48:38;;;;;;;13.77;11.90;;;15.00;99.90;;;;;;5091827;28;20214;-43
2022/04/26 14:51:04;;;;;;;21.60;10.98;;;15.30;99.90;;;;;;5092219;28;20589;-41
2022/04/26 14:53:30;;;;;;;13.88;9.85;;;15.70;99.90;;;;;;5091848;28;20169;-41
2022/04/26 14:55:58;;;;;;;14.80;9.68;;;15.70;99.90;;;;;;5092030;28;20200;-42
2022/04/26 14:58:25;;;;;;;11.82;10.23;;;15.70;99.90;;;;;;5092068;28;20173;-43
2022/04/26 15:00:51;;;;;;;12.48;10.27;;;15.50;99.90;;;;;;5091804;28;20170;-41
2022/04/26 15:03:17;;;;;;;12.18;9.80;;;15.50;99.90;;;;;;5091709;28;20212;-42
2022/04/26 15:05:43;;;;;;;13.55;10.07;;;15.60;99.90;;;;;;5091778;28;20174;-41
2022/04/26 15:10:52;;;;;;;13.57;9.70;;;15.60;99.90;;;;;;5092024;28;20211;-41
2022/04/26 15:18:46;;;;;;;18.10;11.45;;;16.00;99.90;;;;;;5091649;28;20160;-41
2022/04/26 15:21:11;;;;;;;14.07;9.35;;;16.10;99.90;;;;;;5091642;28;20166;-41
2022/04/26 15:23:37;;;;;;;14.23;8.95;;;16.00;99.90;;;;;;5091641;28;20517;-42
2022/04/26 15:26:06;;;;;;;12.27;9.15;;;16.00;99.90;;;;;;5091658;28;20170;-42
2022/04/26 15:28:32;;;;;;;10.95;9.48;;;16.00;99.90;;;;;;5091429;28;20184;-41
2022/04/26 15:30:57;;;;;;;12.63;9.60;;;15.90;99.90;;;;;;5091807;28;20248;-41
2022/04/26 15:33:24;;;;;;;10.20;9.20;;;15.90;99.90;;;;;;5091778;28;20197;-41
2022/04/26 15:35:51;;;;;;;11.75;8.88;;;15.90;99.90;;;;;;5091402;28;20565;-41
2022/04/26 15:38:17;;;;;;;13.20;9.07;;;15.80;99.90;;;;;;5091666;28;20165;-41
2022/04/26 15:40:46;;;;;;;13.27;8.88;;;15.70;99.90;;;;;;5092279;28;20233;-41
2022/04/26 15:43:12;;;;;;;9.85;8.65;;;15.60;99.90;;;;;;5095365;28;20238;-41
2022/04/26 15:45:37;;;;;;;8.45;7.65;;;15.50;99.90;;;;;;5095032;28;20630;-41
2022/04/26 15:48:04;;;;;;;8.77;7.75;;;14.90;99.90;;;;;;5095270;28;20252;-42
2022/04/26 15:50:30;;;;;;;9.98;7.57;;;14.30;99.90;;;;;;5095172;28;20169;-41
2022/04/26 15:52:55;;;;;;;12.30;9.60;;;14.10;99.90;;;;;;5094124;28;20643;-47
2022/04/26 15:55:22;;;;;;;14.50;12.90;;;14.00;99.90;;;;;;5095199;28;20213;-45
2022/04/26 15:57:49;;;;;;;25.60;17.30;;;13.80;99.90;;;;;;5095023;28;20169;-43
2022/04/26 16:00:15;;;;;;;13.63;10.35;;;13.40;99.90;;;;;;5094745;28;20177;-43
2022/04/26 16:02:43;;;;;;;25.15;16.35;;;13.20;99.90;;;;;;5094478;28;20210;-44
2022/04/26 16:05:09;;;;;;;16.00;9.95;;;13.10;99.90;;;;;;5094911;28;20702;-47
2022/04/26 16:07:35;;;;;;;11.23;9.25;;;12.90;99.90;;;;;;5094551;28;20565;-44
2022/04/26 16:21:14;;;;;;;11.57;10.00;;;12.50;99.90;;;;;;5094374;28;20531;-41
2022/04/26 16:23:39;;;;;;;10.60;9.50;;;12.50;99.90;;;;;;5094223;28;20264;-42
2022/04/26 16:26:07;;;;;;;12.75;11.40;;;12.50;99.90;;;;;;5094493;28;20249;-41
2022/04/26 16:28:34;;;;;;;19.88;15.70;;;12.60;99.90;;;;;;5092246;28;20197;-41
2022/04/26 16:31:00;;;;;;;37.83;25.83;;;12.70;99.90;;;;;;5092837;28;20174;-42
2022/04/26 16:33:26;;;;;;;13.98;11.55;;;12.70;99.90;;;;;;5094371;28;20271;-44
2022/04/26 16:35:53;;;;;;;14.77;11.63;;;12.80;99.90;;;;;;5073324;28;20640;-45
2022/04/26 16:38:19;;;;;;;13.40;12.00;;;12.80;99.90;;;;;;5074068;28;20180;-41
2022/04/26 16:40:46;;;;;;;12.65;11.43;;;13.00;99.90;;;;;;5073751;28;20249;-41
2022/04/26 16:43:15;;;;;;;12.57;11.38;;;13.10;99.90;;;;;;5073974;28;20542;-41
2022/04/26 16:45:40;;;;;;;13.43;11.85;;;13.00;99.90;;;;;;5073626;28;20181;-44
2022/04/26 16:48:06;;;;;;;13.98;12.48;;;13.10;99.90;;;;;;5073653;28;20535;-40
2022/04/26 16:50:32;;;;;;;13.40;11.30;;;13.00;99.90;;;;;;5086340;28;20230;-43
2022/04/26 16:53:00;;;;;;;13.95;12.52;;;13.00;99.90;;;;;;5090870;28;20165;-41
2022/04/26 16:55:26;;;;;;;12.15;10.95;;;12.90;99.90;;;;;;5073605;28;20244;-42
2022/04/26 16:57:51;;;;;;;12.80;11.60;;;13.10;99.90;;;;;;5073410;28;20190;-41
2022/04/26 17:00:17;;;;;;;14.13;12.70;;;13.00;99.90;;;;;;5076586;28;20695;-42
2022/04/26 17:02:43;;;;;;;14.70;13.15;;;13.10;99.90;;;;;;5073288;28;20217;-43